sensor_id;sensor_type;location;lat;lon;timestamp;P1;durP1;ratioP1;P2;durP2;ratioP2
14982;SDS011;7587;51.494;11.930;2022-08-04T00:02:06;2.30;;;2.10;;
14982;SDS011;7587;51.494;11.930;2022-08-04T00:04:36;2.50;;;2.30;;
14982;SDS011;7587;51.494;11.930;2022-08-04T00:07:06;3.65;;;2.25;;
14982;SDS011;7587;51.494;11.930;2022-08-04T00:09:36;2.30;;;2.10;;
14982;SDS011;7587;51.494;11.930;2022-08-04T00:12:04;3.05;;;2.42;;
14982;SDS011;7587;51.494;11.930;2022-08-04T00:14:33;4.78;;;2.80;;
14982;SDS011;7587;51.494;11.930;2022-08-04T00:17:02;4.82;;;2.63;;
14982;SDS011;7587;51.494;11.930;2022-08-04T00:19:28;3.35;;;2.40;;
14982;SDS011;7587;51.494;11.930;2022-08-04T00:21:59;3.28;;;2.97;;
14982;SDS011;7587;51.494;11.930;2022-08-04T00:24:28;4.22;;;2.53;;
14982;SDS011;7587;51.494;11.930;2022-08-04T00:26:56;3.55;;;2.63;;
14982;SDS011;7587;51.494;11.930;2022-08-04T00:29:22;4.97;;;2.15;;
14982;SDS011;7587;51.494;11.930;2022-08-04T00:31:50;2.58;;;2.38;;
14982;SDS011;7587;51.494;11.930;2022-08-04T00:34:16;3.00;;;2.30;;
14982;SDS011;7587;51.494;11.930;2022-08-04T00:36:43;5.30;;;2.53;;
14982;SDS011;7587;51.494;11.930;2022-08-04T00:39:10;6.10;;;2.47;;
14982;SDS011;7587;51.494;11.930;2022-08-04T00:41:38;4.10;;;2.40;;
14982;SDS011;7587;51.494;11.930;2022-08-04T00:44:16;5.15;;;2.20;;
14982;SDS011;7587;51.494;11.930;2022-08-04T00:46:52;3.17;;;2.47;;
14982;SDS011;7587;51.494;11.930;2022-08-04T00:49:32;2.90;;;2.55;;
14982;SDS011;7587;51.494;11.930;2022-08-04T00:52:08;6.03;;;2.72;;
14982;SDS011;7587;51.494;11.930;2022-08-04T00:54:37;2.45;;;2.22;;
14982;SDS011;7587;51.494;11.930;2022-08-04T00:57:12;2.88;;;2.40;;
14982;SDS011;7587;51.494;11.930;2022-08-04T00:59:53;3.42;;;2.75;;
14982;SDS011;7587;51.494;11.930;2022-08-04T01:02:24;4.00;;;2.50;;
14982;SDS011;7587;51.494;11.930;2022-08-04T01:04:56;2.60;;;2.40;;
14982;SDS011;7587;51.494;11.930;2022-08-04T01:07:31;7.55;;;3.10;;
14982;SDS011;7587;51.494;11.930;2022-08-04T01:10:03;4.47;;;2.63;;
14982;SDS011;7587;51.494;11.930;2022-08-04T01:15:24;3.50;;;2.90;;
14982;SDS011;7587;51.494;11.930;2022-08-04T01:17:58;6.65;;;2.90;;
14982;SDS011;7587;51.494;11.930;2022-08-04T01:20:30;2.97;;;2.50;;
14982;SDS011;7587;51.494;11.930;2022-08-04T01:28:27;3.85;;;2.88;;
14982;SDS011;7587;51.494;11.930;2022-08-04T01:30:56;4.10;;;2.78;;
14982;SDS011;7587;51.494;11.930;2022-08-04T01:33:23;2.60;;;2.40;;
14982;SDS011;7587;51.494;11.930;2022-08-04T01:35:52;5.45;;;3.00;;
14982;SDS011;7587;51.494;11.930;2022-08-04T01:38:22;4.90;;;2.83;;
14982;SDS011;7587;51.494;11.930;2022-08-04T01:40:50;5.63;;;2.97;;
14982;SDS011;7587;51.494;11.930;2022-08-04T01:43:17;3.65;;;2.95;;
14982;SDS011;7587;51.494;11.930;2022-08-04T01:45:43;3.70;;;3.30;;
14982;SDS011;7587;51.494;11.930;2022-08-04T01:48:14;4.28;;;3.05;;
14982;SDS011;7587;51.494;11.930;2022-08-04T01:50:41;3.20;;;2.90;;
14982;SDS011;7587;51.494;11.930;2022-08-04T01:53:08;4.38;;;2.90;;
14982;SDS011;7587;51.494;11.930;2022-08-04T01:55:34;4.78;;;3.20;;
14982;SDS011;7587;51.494;11.930;2022-08-04T01:58:01;3.67;;;3.33;;
14982;SDS011;7587;51.494;11.930;2022-08-04T02:00:30;3.50;;;3.20;;
14982;SDS011;7587;51.494;11.930;2022-08-04T02:02:56;3.20;;;3.00;;
14982;SDS011;7587;51.494;11.930;2022-08-04T02:05:24;3.75;;;3.20;;
14982;SDS011;7587;51.494;11.930;2022-08-04T02:08:01;3.47;;;3.00;;
14982;SDS011;7587;51.494;11.930;2022-08-04T02:10:29;7.63;;;5.93;;
14982;SDS011;7587;51.494;11.930;2022-08-04T02:13:03;6.40;;;4.68;;
14982;SDS011;7587;51.494;11.930;2022-08-04T02:15:38;7.50;;;3.53;;
14982;SDS011;7587;51.494;11.930;2022-08-04T02:18:08;3.92;;;3.13;;
14982;SDS011;7587;51.494;11.930;2022-08-04T02:20:41;4.28;;;3.60;;
14982;SDS011;7587;51.494;11.930;2022-08-04T02:23:08;3.17;;;2.88;;
14982;SDS011;7587;51.494;11.930;2022-08-04T02:25:36;8.63;;;3.97;;
14982;SDS011;7587;51.494;11.930;2022-08-04T02:28:11;5.03;;;3.90;;
14982;SDS011;7587;51.494;11.930;2022-08-04T02:30:42;5.85;;;3.67;;
14982;SDS011;7587;51.494;11.930;2022-08-04T02:33:17;4.40;;;3.60;;
14982;SDS011;7587;51.494;11.930;2022-08-04T02:35:45;4.78;;;3.55;;
14982;SDS011;7587;51.494;11.930;2022-08-04T02:38:20;5.47;;;3.80;;
14982;SDS011;7587;51.494;11.930;2022-08-04T02:40:46;4.38;;;3.75;;
14982;SDS011;7587;51.494;11.930;2022-08-04T02:43:13;8.70;;;4.30;;
14982;SDS011;7587;51.494;11.930;2022-08-04T02:45:40;5.05;;;4.43;;
14982;SDS011;7587;51.494;11.930;2022-08-04T02:48:06;5.05;;;3.47;;
14982;SDS011;7587;51.494;11.930;2022-08-04T02:50:33;5.65;;;4.03;;
14982;SDS011;7587;51.494;11.930;2022-08-04T02:53:02;6.20;;;3.92;;
14982;SDS011;7587;51.494;11.930;2022-08-04T02:55:28;4.47;;;3.72;;
14982;SDS011;7587;51.494;11.930;2022-08-04T02:57:55;5.82;;;3.53;;
14982;SDS011;7587;51.494;11.930;2022-08-04T03:00:21;4.80;;;3.00;;
14982;SDS011;7587;51.494;11.930;2022-08-04T03:02:50;5.15;;;3.15;;
14982;SDS011;7587;51.494;11.930;2022-08-04T03:05:20;10.23;;;3.47;;
14982;SDS011;7587;51.494;11.930;2022-08-04T03:07:55;7.15;;;3.22;;
14982;SDS011;7587;51.494;11.930;2022-08-04T03:13:15;3.75;;;2.92;;
14982;SDS011;7587;51.494;11.930;2022-08-04T03:16:07;4.65;;;3.25;;
14982;SDS011;7587;51.494;11.930;2022-08-04T03:21:40;5.95;;;3.40;;
14982;SDS011;7587;51.494;11.930;2022-08-04T03:24:18;4.22;;;2.90;;
14982;SDS011;7587;51.494;11.930;2022-08-04T03:26:51;5.85;;;3.00;;
14982;SDS011;7587;51.494;11.930;2022-08-04T03:29:31;3.22;;;2.95;;
14982;SDS011;7587;51.494;11.930;2022-08-04T03:32:09;5.07;;;3.45;;
14982;SDS011;7587;51.494;11.930;2022-08-04T03:34:45;3.30;;;3.00;;
14982;SDS011;7587;51.494;11.930;2022-08-04T03:37:24;6.40;;;2.80;;
14982;SDS011;7587;51.494;11.930;2022-08-04T03:40:01;3.40;;;3.10;;
14982;SDS011;7587;51.494;11.930;2022-08-04T03:42:33;5.35;;;2.78;;
14982;SDS011;7587;51.494;11.930;2022-08-04T03:50:45;3.53;;;3.22;;
14982;SDS011;7587;51.494;11.930;2022-08-04T03:53:39;4.63;;;3.42;;
14982;SDS011;7587;51.494;11.930;2022-08-04T03:56:15;3.63;;;3.28;;
14982;SDS011;7587;51.494;11.930;2022-08-04T03:58:51;3.40;;;3.10;;
14982;SDS011;7587;51.494;11.930;2022-08-04T04:01:31;3.65;;;2.85;;
14982;SDS011;7587;51.494;11.930;2022-08-04T04:04:09;3.97;;;3.40;;
14982;SDS011;7587;51.494;11.930;2022-08-04T04:06:52;8.05;;;3.22;;
14982;SDS011;7587;51.494;11.930;2022-08-04T04:12:13;4.32;;;2.95;;
14982;SDS011;7587;51.494;11.930;2022-08-04T04:14:45;6.22;;;3.53;;
14982;SDS011;7587;51.494;11.930;2022-08-04T04:17:19;3.78;;;3.22;;
14982;SDS011;7587;51.494;11.930;2022-08-04T04:19:52;6.97;;;3.72;;
14982;SDS011;7587;51.494;11.930;2022-08-04T04:25:07;3.58;;;3.28;;
14982;SDS011;7587;51.494;11.930;2022-08-04T04:27:39;4.68;;;3.40;;
14982;SDS011;7587;51.494;11.930;2022-08-04T04:30:06;4.40;;;3.15;;
14982;SDS011;7587;51.494;11.930;2022-08-04T04:32:44;4.60;;;3.50;;
14982;SDS011;7587;51.494;11.930;2022-08-04T04:35:17;5.30;;;3.47;;
14982;SDS011;7587;51.494;11.930;2022-08-04T04:37:49;5.00;;;3.22;;
14982;SDS011;7587;51.494;11.930;2022-08-04T04:40:22;3.55;;;3.22;;
14982;SDS011;7587;51.494;11.930;2022-08-04T04:45:39;4.20;;;3.00;;
14982;SDS011;7587;51.494;11.930;2022-08-04T04:48:08;5.22;;;3.35;;
14982;SDS011;7587;51.494;11.930;2022-08-04T04:50:42;3.78;;;2.80;;
14982;SDS011;7587;51.494;11.930;2022-08-04T04:53:12;3.25;;;2.95;;
14982;SDS011;7587;51.494;11.930;2022-08-04T04:55:44;3.60;;;3.30;;
14982;SDS011;7587;51.494;11.930;2022-08-04T04:58:13;4.53;;;3.03;;
14982;SDS011;7587;51.494;11.930;2022-08-04T05:00:46;4.57;;;2.90;;
14982;SDS011;7587;51.494;11.930;2022-08-04T05:03:20;3.88;;;3.10;;
14982;SDS011;7587;51.494;11.930;2022-08-04T05:05:56;6.25;;;3.45;;
14982;SDS011;7587;51.494;11.930;2022-08-04T05:08:35;5.32;;;3.47;;
14982;SDS011;7587;51.494;11.930;2022-08-04T05:11:11;7.72;;;4.50;;
14982;SDS011;7587;51.494;11.930;2022-08-04T05:13:41;4.18;;;3.38;;
14982;SDS011;7587;51.494;11.930;2022-08-04T05:16:12;4.75;;;3.22;;
14982;SDS011;7587;51.494;11.930;2022-08-04T05:18:41;6.03;;;3.20;;
14982;SDS011;7587;51.494;11.930;2022-08-04T05:21:13;6.32;;;2.75;;
14982;SDS011;7587;51.494;11.930;2022-08-04T05:23:43;5.07;;;2.80;;
14982;SDS011;7587;51.494;11.930;2022-08-04T05:26:15;5.32;;;2.88;;
14982;SDS011;7587;51.494;11.930;2022-08-04T05:28:42;8.30;;;3.25;;
14982;SDS011;7587;51.494;11.930;2022-08-04T05:31:10;3.53;;;3.15;;
14982;SDS011;7587;51.494;11.930;2022-08-04T05:33:38;5.25;;;2.88;;
14982;SDS011;7587;51.494;11.930;2022-08-04T05:36:07;4.25;;;3.00;;
14982;SDS011;7587;51.494;11.930;2022-08-04T05:38:36;5.50;;;3.50;;
14982;SDS011;7587;51.494;11.930;2022-08-04T05:41:03;4.32;;;3.17;;
14982;SDS011;7587;51.494;11.930;2022-08-04T05:43:31;2.95;;;2.70;;
14982;SDS011;7587;51.494;11.930;2022-08-04T05:45:57;3.72;;;3.22;;
14982;SDS011;7587;51.494;11.930;2022-08-04T05:48:24;5.80;;;3.22;;
14982;SDS011;7587;51.494;11.930;2022-08-04T05:50:51;3.67;;;3.10;;
14982;SDS011;7587;51.494;11.930;2022-08-04T05:53:17;3.50;;;3.20;;
14982;SDS011;7587;51.494;11.930;2022-08-04T05:55:44;5.15;;;3.58;;
14982;SDS011;7587;51.494;11.930;2022-08-04T05:58:11;5.32;;;3.50;;
14982;SDS011;7587;51.494;11.930;2022-08-04T06:00:42;5.90;;;3.47;;
14982;SDS011;7587;51.494;11.930;2022-08-04T06:03:09;7.35;;;3.85;;
14982;SDS011;7587;51.494;11.930;2022-08-04T06:05:35;5.00;;;3.95;;
14982;SDS011;7587;51.494;11.930;2022-08-04T06:08:02;4.57;;;3.65;;
14982;SDS011;7587;51.494;11.930;2022-08-04T06:10:28;5.93;;;4.05;;
14982;SDS011;7587;51.494;11.930;2022-08-04T06:12:57;5.30;;;3.90;;
14982;SDS011;7587;51.494;11.930;2022-08-04T06:15:24;5.15;;;4.47;;
14982;SDS011;7587;51.494;11.930;2022-08-04T06:17:53;5.80;;;3.83;;
14982;SDS011;7587;51.494;11.930;2022-08-04T06:20:22;6.55;;;4.03;;
14982;SDS011;7587;51.494;11.930;2022-08-04T06:22:53;7.05;;;4.68;;
14982;SDS011;7587;51.494;11.930;2022-08-04T06:25:21;6.82;;;4.13;;
14982;SDS011;7587;51.494;11.930;2022-08-04T06:27:48;4.70;;;3.75;;
14982;SDS011;7587;51.494;11.930;2022-08-04T06:30:15;4.05;;;3.70;;
14982;SDS011;7587;51.494;11.930;2022-08-04T06:32:43;5.43;;;3.20;;
14982;SDS011;7587;51.494;11.930;2022-08-04T06:35:15;4.70;;;3.35;;
14982;SDS011;7587;51.494;11.930;2022-08-04T06:37:42;4.28;;;3.58;;
14982;SDS011;7587;51.494;11.930;2022-08-04T06:40:10;3.70;;;3.40;;
14982;SDS011;7587;51.494;11.930;2022-08-04T06:42:36;5.95;;;3.15;;
14982;SDS011;7587;51.494;11.930;2022-08-04T06:45:03;5.82;;;2.80;;
14982;SDS011;7587;51.494;11.930;2022-08-04T06:47:30;9.55;;;3.35;;
14982;SDS011;7587;51.494;11.930;2022-08-04T06:49:57;3.72;;;2.95;;
14982;SDS011;7587;51.494;11.930;2022-08-04T06:52:26;5.85;;;3.15;;
14982;SDS011;7587;51.494;11.930;2022-08-04T06:54:52;5.50;;;3.30;;
14982;SDS011;7587;51.494;11.930;2022-08-04T06:57:21;5.30;;;3.15;;
14982;SDS011;7587;51.494;11.930;2022-08-04T06:59:49;3.75;;;2.85;;
14982;SDS011;7587;51.494;11.930;2022-08-04T07:02:17;12.23;;;2.95;;
14982;SDS011;7587;51.494;11.930;2022-08-04T07:04:45;7.47;;;2.83;;
14982;SDS011;7587;51.494;11.930;2022-08-04T07:07:11;5.32;;;2.65;;
14982;SDS011;7587;51.494;11.930;2022-08-04T07:09:39;6.00;;;2.92;;
14982;SDS011;7587;51.494;11.930;2022-08-04T07:12:06;6.45;;;2.72;;
14982;SDS011;7587;51.494;11.930;2022-08-04T07:14:32;3.75;;;2.58;;
14982;SDS011;7587;51.494;11.930;2022-08-04T07:17:00;3.60;;;2.70;;
14982;SDS011;7587;51.494;11.930;2022-08-04T07:19:27;5.63;;;2.50;;
14982;SDS011;7587;51.494;11.930;2022-08-04T07:21:53;2.92;;;2.70;;
14982;SDS011;7587;51.494;11.930;2022-08-04T07:24:20;5.15;;;3.00;;
14982;SDS011;7587;51.494;11.930;2022-08-04T07:26:55;7.53;;;2.50;;
14982;SDS011;7587;51.494;11.930;2022-08-04T07:29:22;3.78;;;2.58;;
14982;SDS011;7587;51.494;11.930;2022-08-04T07:31:48;3.63;;;2.45;;
14982;SDS011;7587;51.494;11.930;2022-08-04T07:58:28;2.47;;;2.28;;
14982;SDS011;7587;51.494;11.930;2022-08-04T08:03:57;2.67;;;2.42;;
14982;SDS011;7587;51.494;11.930;2022-08-04T08:06:24;6.00;;;2.53;;
14982;SDS011;7587;51.494;11.930;2022-08-04T08:08:53;5.32;;;2.70;;
14982;SDS011;7587;51.494;11.930;2022-08-04T08:11:19;3.78;;;2.35;;
14982;SDS011;7587;51.494;11.930;2022-08-04T08:13:47;3.38;;;2.38;;
14982;SDS011;7587;51.494;11.930;2022-08-04T08:16:14;3.80;;;2.60;;
14982;SDS011;7587;51.494;11.930;2022-08-04T08:18:40;2.80;;;2.20;;
14982;SDS011;7587;51.494;11.930;2022-08-04T08:21:07;5.13;;;2.83;;
14982;SDS011;7587;51.494;11.930;2022-08-04T08:23:34;11.93;;;2.72;;
14982;SDS011;7587;51.494;11.930;2022-08-04T08:26:00;5.70;;;2.80;;
14982;SDS011;7587;51.494;11.930;2022-08-04T08:28:26;6.15;;;2.50;;
14982;SDS011;7587;51.494;11.930;2022-08-04T08:30:54;8.52;;;2.75;;
14982;SDS011;7587;51.494;11.930;2022-08-04T08:33:20;3.97;;;2.20;;
14982;SDS011;7587;51.494;11.930;2022-08-04T14:04:27;2.85;;;1.95;;
14982;SDS011;7587;51.494;11.930;2022-08-04T14:06:58;1.80;;;1.20;;
14982;SDS011;7587;51.494;11.930;2022-08-04T14:09:27;1.77;;;1.20;;
14982;SDS011;7587;51.494;11.930;2022-08-04T14:11:55;3.35;;;1.50;;
14982;SDS011;7587;51.494;11.930;2022-08-04T14:14:29;1.27;;;1.08;;
14982;SDS011;7587;51.494;11.930;2022-08-04T14:16:56;3.22;;;1.90;;
14982;SDS011;7587;51.494;11.930;2022-08-04T14:19:24;1.63;;;1.33;;
14982;SDS011;7587;51.494;11.930;2022-08-04T14:21:50;4.97;;;1.58;;
14982;SDS011;7587;51.494;11.930;2022-08-04T14:24:21;3.03;;;1.38;;
14982;SDS011;7587;51.494;11.930;2022-08-04T14:26:48;1.98;;;1.40;;
14982;SDS011;7587;51.494;11.930;2022-08-04T14:29:15;1.73;;;1.58;;
14982;SDS011;7587;51.494;11.930;2022-08-04T14:31:41;1.60;;;1.45;;
14982;SDS011;7587;51.494;11.930;2022-08-04T14:34:08;1.38;;;1.27;;
14982;SDS011;7587;51.494;11.930;2022-08-04T14:36:39;1.23;;;1.20;;
14982;SDS011;7587;51.494;11.930;2022-08-04T14:39:06;1.45;;;1.35;;
14982;SDS011;7587;51.494;11.930;2022-08-04T14:41:42;2.20;;;1.25;;
14982;SDS011;7587;51.494;11.930;2022-08-04T14:44:09;4.35;;;1.63;;
14982;SDS011;7587;51.494;11.930;2022-08-04T14:46:35;4.47;;;1.20;;
14982;SDS011;7587;51.494;11.930;2022-08-04T14:49:13;1.65;;;1.35;;
14982;SDS011;7587;51.494;11.930;2022-08-04T14:51:42;3.28;;;1.35;;
14982;SDS011;7587;51.494;11.930;2022-08-04T14:54:09;1.30;;;1.15;;
14982;SDS011;7587;51.494;11.930;2022-08-04T14:56:36;1.77;;;1.48;;
14982;SDS011;7587;51.494;11.930;2022-08-04T14:59:04;5.03;;;1.35;;
14982;SDS011;7587;51.494;11.930;2022-08-04T15:01:31;1.70;;;1.27;;
14982;SDS011;7587;51.494;11.930;2022-08-04T15:03:58;2.47;;;1.23;;
14982;SDS011;7587;51.494;11.930;2022-08-04T15:06:26;4.90;;;1.40;;
14982;SDS011;7587;51.494;11.930;2022-08-04T15:08:54;2.78;;;1.38;;
14982;SDS011;7587;51.494;11.930;2022-08-04T15:11:21;3.55;;;1.52;;
14982;SDS011;7587;51.494;11.930;2022-08-04T15:13:47;7.45;;;1.58;;
14982;SDS011;7587;51.494;11.930;2022-08-04T15:16:14;3.80;;;1.60;;
14982;SDS011;7587;51.494;11.930;2022-08-04T15:18:40;1.88;;;1.27;;
14982;SDS011;7587;51.494;11.930;2022-08-04T15:21:07;1.50;;;1.40;;
14982;SDS011;7587;51.494;11.930;2022-08-04T15:23:33;2.50;;;1.98;;
14982;SDS011;7587;51.494;11.930;2022-08-04T15:26:01;2.13;;;1.73;;
14982;SDS011;7587;51.494;11.930;2022-08-04T15:28:28;1.83;;;1.60;;
14982;SDS011;7587;51.494;11.930;2022-08-04T15:30:56;1.77;;;1.40;;
14982;SDS011;7587;51.494;11.930;2022-08-04T15:33:25;4.07;;;1.55;;
14982;SDS011;7587;51.494;11.930;2022-08-04T15:35:54;3.15;;;1.67;;
14982;SDS011;7587;51.494;11.930;2022-08-04T15:38:24;4.30;;;1.58;;
14982;SDS011;7587;51.494;11.930;2022-08-04T15:40:51;3.08;;;1.30;;
14982;SDS011;7587;51.494;11.930;2022-08-04T15:43:26;1.90;;;1.70;;
14982;SDS011;7587;51.494;11.930;2022-08-04T15:45:55;2.42;;;1.33;;
14982;SDS011;7587;51.494;11.930;2022-08-04T15:48:24;2.30;;;1.50;;
14982;SDS011;7587;51.494;11.930;2022-08-04T15:50:59;2.88;;;1.50;;
14982;SDS011;7587;51.494;11.930;2022-08-04T15:53:28;1.40;;;1.30;;
14982;SDS011;7587;51.494;11.930;2022-08-04T15:55:54;2.38;;;1.50;;
14982;SDS011;7587;51.494;11.930;2022-08-04T15:58:21;1.48;;;1.30;;
14982;SDS011;7587;51.494;11.930;2022-08-04T16:09:24;2.78;;;1.23;;
14982;SDS011;7587;51.494;11.930;2022-08-04T16:11:51;2.63;;;1.50;;
14982;SDS011;7587;51.494;11.930;2022-08-04T16:14:28;1.27;;;1.27;;
14982;SDS011;7587;51.494;11.930;2022-08-04T16:16:55;3.92;;;1.00;;
14982;SDS011;7587;51.494;11.930;2022-08-04T16:19:24;1.50;;;1.40;;
14982;SDS011;7587;51.494;11.930;2022-08-04T16:21:53;4.55;;;2.00;;
14982;SDS011;7587;51.494;11.930;2022-08-04T16:24:20;2.08;;;1.52;;
14982;SDS011;7587;51.494;11.930;2022-08-04T16:26:50;1.70;;;1.42;;
14982;SDS011;7587;51.494;11.930;2022-08-04T16:29:23;1.40;;;1.30;;
14982;SDS011;7587;51.494;11.930;2022-08-04T16:34:47;2.30;;;1.30;;
14982;SDS011;7587;51.494;11.930;2022-08-04T16:37:13;2.75;;;1.30;;
14982;SDS011;7587;51.494;11.930;2022-08-04T16:39:40;1.45;;;1.35;;
14982;SDS011;7587;51.494;11.930;2022-08-04T16:44:58;3.42;;;1.25;;
14982;SDS011;7587;51.494;11.930;2022-08-04T16:50:10;1.85;;;1.50;;
14982;SDS011;7587;51.494;11.930;2022-08-04T16:52:40;2.13;;;1.40;;
14982;SDS011;7587;51.494;11.930;2022-08-04T16:55:07;2.13;;;1.50;;
14982;SDS011;7587;51.494;11.930;2022-08-04T16:57:33;1.42;;;1.33;;
14982;SDS011;7587;51.494;11.930;2022-08-04T17:00:01;1.20;;;1.20;;
14982;SDS011;7587;51.494;11.930;2022-08-04T17:02:28;3.03;;;1.58;;
14982;SDS011;7587;51.494;11.930;2022-08-04T17:04:55;2.45;;;1.20;;
14982;SDS011;7587;51.494;11.930;2022-08-04T17:07:21;2.00;;;1.23;;
14982;SDS011;7587;51.494;11.930;2022-08-04T17:09:48;2.65;;;1.45;;
14982;SDS011;7587;51.494;11.930;2022-08-04T17:12:14;2.92;;;1.20;;
14982;SDS011;7587;51.494;11.930;2022-08-04T17:14:40;1.90;;;1.48;;
14982;SDS011;7587;51.494;11.930;2022-08-04T17:17:08;3.45;;;1.60;;
14982;SDS011;7587;51.494;11.930;2022-08-04T17:19:34;1.90;;;1.60;;
14982;SDS011;7587;51.494;11.930;2022-08-04T17:22:01;1.80;;;1.67;;
14982;SDS011;7587;51.494;11.930;2022-08-04T17:24:28;1.98;;;1.70;;
14982;SDS011;7587;51.494;11.930;2022-08-04T17:26:54;3.78;;;1.40;;
14982;SDS011;7587;51.494;11.930;2022-08-04T17:29:22;3.08;;;1.77;;
14982;SDS011;7587;51.494;11.930;2022-08-04T17:31:49;1.92;;;1.83;;
14982;SDS011;7587;51.494;11.930;2022-08-04T17:34:17;2.50;;;1.67;;
14982;SDS011;7587;51.494;11.930;2022-08-04T17:36:45;3.22;;;1.80;;
14982;SDS011;7587;51.494;11.930;2022-08-04T17:39:12;3.45;;;1.88;;
14982;SDS011;7587;51.494;11.930;2022-08-04T17:41:38;4.55;;;1.65;;
14982;SDS011;7587;51.494;11.930;2022-08-04T17:44:05;2.78;;;1.55;;
14982;SDS011;7587;51.494;11.930;2022-08-04T17:46:35;1.85;;;1.70;;
14982;SDS011;7587;51.494;11.930;2022-08-04T17:49:03;2.20;;;1.60;;
14982;SDS011;7587;51.494;11.930;2022-08-04T17:51:32;1.63;;;1.52;;
14982;SDS011;7587;51.494;11.930;2022-08-04T17:53:59;2.13;;;1.60;;
14982;SDS011;7587;51.494;11.930;2022-08-04T17:56:31;1.50;;;1.40;;
14982;SDS011;7587;51.494;11.930;2022-08-04T17:59:04;2.10;;;1.63;;
14982;SDS011;7587;51.494;11.930;2022-08-04T18:01:38;5.07;;;1.50;;
14982;SDS011;7587;51.494;11.930;2022-08-04T18:06:49;4.65;;;1.73;;
14982;SDS011;7587;51.494;11.930;2022-08-04T18:09:20;1.88;;;1.77;;
14982;SDS011;7587;51.494;11.930;2022-08-04T18:11:50;3.42;;;1.80;;
14982;SDS011;7587;51.494;11.930;2022-08-04T18:14:16;4.63;;;1.80;;
14982;SDS011;7587;51.494;11.930;2022-08-04T18:16:43;1.70;;;1.60;;
14982;SDS011;7587;51.494;11.930;2022-08-04T18:19:09;1.85;;;1.75;;
14982;SDS011;7587;51.494;11.930;2022-08-04T18:21:36;3.55;;;1.70;;
14982;SDS011;7587;51.494;11.930;2022-08-04T18:24:04;7.63;;;1.95;;
14982;SDS011;7587;51.494;11.930;2022-08-04T18:26:30;4.60;;;1.95;;
14982;SDS011;7587;51.494;11.930;2022-08-04T18:28:57;3.67;;;2.00;;
14982;SDS011;7587;51.494;11.930;2022-08-04T18:31:23;3.28;;;1.65;;
14982;SDS011;7587;51.494;11.930;2022-08-04T18:33:50;2.10;;;2.00;;
14982;SDS011;7587;51.494;11.930;2022-08-04T18:36:16;2.15;;;2.00;;
14982;SDS011;7587;51.494;11.930;2022-08-04T18:38:42;2.03;;;1.92;;
14982;SDS011;7587;51.494;11.930;2022-08-04T18:41:13;4.32;;;1.80;;
14982;SDS011;7587;51.494;11.930;2022-08-04T18:43:39;1.98;;;1.88;;
14982;SDS011;7587;51.494;11.930;2022-08-04T18:46:05;2.20;;;2.00;;
14982;SDS011;7587;51.494;11.930;2022-08-04T18:48:31;4.80;;;1.80;;
14982;SDS011;7587;51.494;11.930;2022-08-04T18:50:58;3.20;;;2.13;;
14982;SDS011;7587;51.494;11.930;2022-08-04T18:53:24;3.22;;;2.35;;
14982;SDS011;7587;51.494;11.930;2022-08-04T18:55:50;2.70;;;2.10;;
14982;SDS011;7587;51.494;11.930;2022-08-04T18:58:18;3.03;;;2.30;;
14982;SDS011;7587;51.494;11.930;2022-08-04T19:00:44;4.18;;;2.40;;
14982;SDS011;7587;51.494;11.930;2022-08-04T19:03:10;3.65;;;2.30;;
14982;SDS011;7587;51.494;11.930;2022-08-04T19:05:37;2.70;;;2.45;;
14982;SDS011;7587;51.494;11.930;2022-08-04T19:08:03;2.40;;;2.20;;
14982;SDS011;7587;51.494;11.930;2022-08-04T19:10:29;2.10;;;1.88;;
14982;SDS011;7587;51.494;11.930;2022-08-04T19:12:56;2.75;;;2.10;;
14982;SDS011;7587;51.494;11.930;2022-08-04T19:15:23;2.55;;;1.98;;
14982;SDS011;7587;51.494;11.930;2022-08-04T19:17:53;2.00;;;1.90;;
14982;SDS011;7587;51.494;11.930;2022-08-04T19:20:19;4.03;;;2.97;;
14982;SDS011;7587;51.494;11.930;2022-08-04T19:22:45;4.57;;;2.92;;
14982;SDS011;7587;51.494;11.930;2022-08-04T19:25:11;2.70;;;2.33;;
14982;SDS011;7587;51.494;11.930;2022-08-04T19:27:38;3.03;;;2.72;;
14982;SDS011;7587;51.494;11.930;2022-08-04T19:30:04;3.42;;;3.13;;
14982;SDS011;7587;51.494;11.930;2022-08-04T19:32:32;3.75;;;3.10;;
14982;SDS011;7587;51.494;11.930;2022-08-04T19:34:58;3.85;;;3.55;;
14982;SDS011;7587;51.494;11.930;2022-08-04T19:37:25;2.47;;;2.33;;
14982;SDS011;7587;51.494;11.930;2022-08-04T19:39:51;2.75;;;2.40;;
14982;SDS011;7587;51.494;11.930;2022-08-04T19:42:17;2.42;;;2.22;;
14982;SDS011;7587;51.494;11.930;2022-08-04T19:44:44;3.03;;;2.83;;
14982;SDS011;7587;51.494;11.930;2022-08-04T19:47:10;2.90;;;2.70;;
14982;SDS011;7587;51.494;11.930;2022-08-04T19:49:38;4.97;;;2.80;;
14982;SDS011;7587;51.494;11.930;2022-08-04T19:52:04;6.72;;;3.30;;
14982;SDS011;7587;51.494;11.930;2022-08-04T19:54:31;3.10;;;2.80;;
14982;SDS011;7587;51.494;11.930;2022-08-04T19:56:57;4.28;;;2.90;;
14982;SDS011;7587;51.494;11.930;2022-08-04T19:59:24;2.92;;;2.60;;
14982;SDS011;7587;51.494;11.930;2022-08-04T20:01:50;2.70;;;2.50;;
14982;SDS011;7587;51.494;11.930;2022-08-04T20:04:17;4.07;;;3.00;;
14982;SDS011;7587;51.494;11.930;2022-08-04T20:06:44;3.35;;;2.53;;
14982;SDS011;7587;51.494;11.930;2022-08-04T20:09:11;3.20;;;2.92;;
14982;SDS011;7587;51.494;11.930;2022-08-04T20:11:37;3.72;;;2.63;;
14982;SDS011;7587;51.494;11.930;2022-08-04T20:14:03;3.08;;;2.88;;
14982;SDS011;7587;51.494;11.930;2022-08-04T20:16:29;4.88;;;2.90;;
14982;SDS011;7587;51.494;11.930;2022-08-04T20:18:56;2.92;;;2.72;;
14982;SDS011;7587;51.494;11.930;2022-08-04T20:21:23;2.90;;;2.60;;
14982;SDS011;7587;51.494;11.930;2022-08-04T20:23:50;3.08;;;2.65;;
14982;SDS011;7587;51.494;11.930;2022-08-04T20:26:17;4.00;;;2.50;;
14982;SDS011;7587;51.494;11.930;2022-08-04T20:28:43;3.45;;;2.72;;
14982;SDS011;7587;51.494;11.930;2022-08-04T20:31:09;3.00;;;2.80;;
14982;SDS011;7587;51.494;11.930;2022-08-04T20:33:36;2.80;;;2.60;;
14982;SDS011;7587;51.494;11.930;2022-08-04T20:36:02;5.65;;;2.50;;
14982;SDS011;7587;51.494;11.930;2022-08-04T20:38:28;3.75;;;2.58;;
14982;SDS011;7587;51.494;11.930;2022-08-04T20:40:57;2.95;;;2.60;;
14982;SDS011;7587;51.494;11.930;2022-08-04T20:43:24;3.97;;;2.30;;
14982;SDS011;7587;51.494;11.930;2022-08-04T20:45:50;5.80;;;2.63;;
14982;SDS011;7587;51.494;11.930;2022-08-04T20:48:16;2.60;;;2.30;;
14982;SDS011;7587;51.494;11.930;2022-08-04T20:50:43;3.60;;;2.35;;
14982;SDS011;7587;51.494;11.930;2022-08-04T20:53:09;4.45;;;2.38;;
14982;SDS011;7587;51.494;11.930;2022-08-04T20:55:36;2.55;;;2.00;;
14982;SDS011;7587;51.494;11.930;2022-08-04T20:58:03;6.07;;;2.10;;
14982;SDS011;7587;51.494;11.930;2022-08-04T21:00:29;2.30;;;2.10;;
14982;SDS011;7587;51.494;11.930;2022-08-04T21:02:56;2.40;;;1.92;;
14982;SDS011;7587;51.494;11.930;2022-08-04T21:05:22;3.13;;;1.90;;
14982;SDS011;7587;51.494;11.930;2022-08-04T21:07:49;2.03;;;1.92;;
14982;SDS011;7587;51.494;11.930;2022-08-04T21:10:16;4.93;;;2.05;;
14982;SDS011;7587;51.494;11.930;2022-08-04T21:12:42;2.95;;;2.00;;
14982;SDS011;7587;51.494;11.930;2022-08-04T21:15:09;4.85;;;1.70;;
14982;SDS011;7587;51.494;11.930;2022-08-04T21:17:36;2.75;;;2.22;;
14982;SDS011;7587;51.494;11.930;2022-08-04T21:20:02;5.72;;;2.20;;
14982;SDS011;7587;51.494;11.930;2022-08-04T21:22:29;2.33;;;1.90;;
14982;SDS011;7587;51.494;11.930;2022-08-04T21:24:56;3.00;;;2.15;;
14982;SDS011;7587;51.494;11.930;2022-08-04T21:27:22;2.72;;;1.85;;
14982;SDS011;7587;51.494;11.930;2022-08-04T21:29:48;4.90;;;2.08;;
14982;SDS011;7587;51.494;11.930;2022-08-04T21:32:16;6.18;;;2.17;;
14982;SDS011;7587;51.494;11.930;2022-08-04T21:34:42;4.45;;;2.25;;
14982;SDS011;7587;51.494;11.930;2022-08-04T21:37:08;2.88;;;2.10;;
14982;SDS011;7587;51.494;11.930;2022-08-04T21:39:36;1.90;;;1.80;;
14982;SDS011;7587;51.494;11.930;2022-08-04T21:42:03;1.83;;;1.70;;